createdAt,value
2018-04-16T00:00:36.166Z,19.66
2018-04-16T00:01:36.286Z,19.69
2018-04-16T00:02:36.051Z,19.76
2018-04-16T00:03:35.983Z,19.70
2018-04-16T00:04:35.964Z,19.74
2018-04-16T00:05:35.906Z,19.82
2018-04-16T00:06:35.860Z,19.77
2018-04-16T00:07:36.024Z,19.89
2018-04-16T00:08:35.784Z,19.85
2018-04-16T00:09:35.725Z,19.81
2018-04-16T00:10:35.713Z,19.82
2018-04-16T00:11:35.658Z,19.89
2018-04-16T00:12:35.603Z,19.85
2018-04-16T00:13:35.762Z,19.84
2018-04-16T00:14:35.488Z,19.94
2018-04-16T00:15:35.482Z,19.92
2018-04-16T00:16:35.442Z,19.92
2018-04-16T00:17:35.373Z,19.88
2018-04-16T00:18:35.321Z,19.84
2018-04-16T00:19:35.473Z,19.82
2018-04-16T00:20:35.257Z,19.85
2018-04-16T00:21:35.198Z,19.85
2018-04-16T00:22:35.140Z,19.85
2018-04-16T00:23:35.108Z,19.85
2018-04-16T00:24:35.036Z,19.84
2018-04-16T00:25:35.196Z,19.89
2018-04-16T00:26:34.971Z,19.86
2018-04-16T00:27:34.928Z,19.91
2018-04-16T00:28:34.903Z,19.85
2018-04-16T00:29:34.813Z,19.88
2018-04-16T00:30:34.799Z,19.85
2018-04-16T00:31:34.948Z,19.84
2018-04-16T00:32:34.705Z,19.81
2018-04-16T00:33:34.655Z,19.86
2018-04-16T00:34:34.624Z,19.84
2018-04-16T00:35:34.577Z,19.86
2018-04-16T00:36:34.537Z,19.82
2018-04-16T00:37:34.703Z,19.85
2018-04-16T00:38:34.404Z,19.81
2018-04-16T00:39:34.387Z,19.88
2018-04-16T00:40:34.321Z,19.73
2018-04-16T00:41:34.310Z,19.79
2018-04-16T00:42:34.261Z,19.81
2018-04-16T00:43:34.396Z,19.85
2018-04-16T00:44:34.146Z,19.84
2018-04-16T00:45:34.107Z,19.95
2018-04-16T00:46:34.069Z,19.88
2018-04-16T00:47:34.026Z,19.92
2018-04-16T00:48:34.191Z,19.84
2018-04-16T00:49:33.921Z,19.85
2018-04-16T00:50:33.893Z,19.79
2018-04-16T00:51:33.839Z,19.86
2018-04-16T00:52:33.794Z,19.89
2018-04-16T00:53:33.781Z,19.91
2018-04-16T00:54:33.891Z,19.91
2018-04-16T00:55:33.673Z,19.95
2018-04-16T00:56:33.647Z,20.03
2018-04-16T00:57:33.581Z,19.86
2018-04-16T00:58:33.511Z,19.81
2018-04-16T00:59:33.493Z,19.82
2018-04-16T01:00:33.642Z,19.67
2018-04-16T01:01:33.398Z,19.74
2018-04-16T01:02:33.359Z,19.77
2018-04-16T01:03:33.293Z,19.85
2018-04-16T01:04:33.259Z,19.82
2018-04-16T01:05:33.203Z,19.84
2018-04-16T01:06:33.383Z,19.79
2018-04-16T01:07:33.123Z,19.74
2018-04-16T01:08:33.100Z,19.84
2018-04-16T01:09:33.029Z,19.70
2018-04-16T01:10:32.977Z,19.81
2018-04-16T01:11:32.934Z,19.70
2018-04-16T01:12:33.161Z,19.77
2018-04-16T01:13:32.874Z,19.82
2018-04-16T01:14:33.350Z,19.66
2018-04-16T01:15:32.754Z,19.70
2018-04-16T01:16:32.738Z,19.84
2018-04-16T01:17:32.683Z,19.85
2018-04-16T01:18:32.825Z,19.82
2018-04-16T01:19:32.590Z,19.85
2018-04-16T01:20:32.549Z,19.82
2018-04-16T01:21:32.485Z,19.84
2018-04-16T01:22:32.459Z,19.82
2018-04-16T01:23:32.414Z,19.81
2018-04-16T01:24:32.576Z,19.86
2018-04-16T01:25:32.307Z,19.76
2018-04-16T01:26:32.293Z,19.67
2018-04-16T01:27:32.232Z,19.63
2018-04-16T01:28:32.191Z,19.66
2018-04-16T01:29:32.156Z,19.62
2018-04-16T01:30:32.297Z,19.62
2018-04-16T01:31:32.045Z,19.64
2018-04-16T01:32:32.025Z,19.51
2018-04-16T01:33:31.968Z,19.64
2018-04-16T01:34:31.911Z,19.59
2018-04-16T01:35:31.892Z,19.66
2018-04-16T01:36:32.037Z,19.66
2018-04-16T01:37:31.787Z,19.66
2018-04-16T01:38:31.757Z,19.54
2018-04-16T01:39:31.708Z,19.63
2018-04-16T01:40:31.648Z,19.52
2018-04-16T01:41:31.609Z,19.54
2018-04-16T01:42:31.737Z,19.45
2018-04-16T01:43:31.505Z,19.44
2018-04-16T01:44:31.456Z,19.54
2018-04-16T01:45:31.409Z,19.49
2018-04-16T01:46:31.358Z,19.55
2018-04-16T01:47:31.352Z,19.52
2018-04-16T01:48:31.478Z,19.63
2018-04-16T01:49:31.238Z,19.49
2018-04-16T01:50:31.218Z,19.64
2018-04-16T01:51:31.153Z,19.56
2018-04-16T01:52:31.113Z,19.67
2018-04-16T01:53:31.069Z,19.59
2018-04-16T01:54:31.233Z,19.52
2018-04-16T01:55:30.959Z,19.56
2018-04-16T01:56:30.942Z,19.49
2018-04-16T01:57:30.860Z,19.51
2018-04-16T01:58:30.844Z,19.51
2018-04-16T01:59:30.789Z,19.64
2018-04-16T02:00:30.966Z,19.62
2018-04-16T02:01:30.716Z,19.55
2018-04-16T02:02:30.670Z,19.56
2018-04-16T02:03:30.631Z,19.48
2018-04-16T02:04:30.568Z,19.49
2018-04-16T02:05:30.547Z,19.34
2018-04-16T02:06:30.668Z,19.30
2018-04-16T02:07:30.432Z,19.24
2018-04-16T02:08:30.397Z,19.30
2018-04-16T02:09:30.359Z,19.36
2018-04-16T02:10:30.296Z,19.40
2018-04-16T02:11:30.310Z,19.44
2018-04-16T02:12:30.385Z,19.33
2018-04-16T02:13:30.153Z,19.47
2018-04-16T02:14:30.144Z,19.45
2018-04-16T02:15:30.060Z,19.41
2018-04-16T02:16:30.029Z,19.39
2018-04-16T02:17:29.972Z,19.34
2018-04-16T02:18:30.120Z,19.39
2018-04-16T02:19:29.875Z,19.33
2018-04-16T02:20:29.852Z,19.39
2018-04-16T02:21:29.791Z,19.40
2018-04-16T02:22:29.733Z,19.48
2018-04-16T02:23:29.713Z,19.45
2018-04-16T02:24:29.843Z,19.40
2018-04-16T02:25:29.605Z,19.29
2018-04-16T02:26:29.567Z,19.21
2018-04-16T02:27:29.557Z,19.33
2018-04-16T02:28:29.475Z,19.30
2018-04-16T02:29:29.461Z,19.31
2018-04-16T02:30:29.616Z,19.40
2018-04-16T02:31:29.333Z,19.34
2018-04-16T02:32:29.288Z,19.45
2018-04-16T02:33:29.263Z,19.54
2018-04-16T02:34:29.199Z,19.52
2018-04-16T02:35:29.187Z,19.62
2018-04-16T02:36:29.330Z,19.51
2018-04-16T02:37:29.069Z,19.51
2018-04-16T02:39:28.993Z,19.52
2018-04-16T02:40:28.945Z,19.49
2018-04-16T02:41:28.872Z,19.58
2018-04-16T02:42:29.076Z,19.59
2018-04-16T02:43:28.798Z,19.63
2018-04-16T02:44:28.785Z,19.62
2018-04-16T02:45:28.706Z,19.52
2018-04-16T02:46:28.676Z,19.55
2018-04-16T02:47:28.614Z,19.51
2018-04-16T02:48:28.767Z,19.58
2018-04-16T02:49:28.557Z,19.55
2018-04-16T02:50:28.491Z,19.52
2018-04-16T02:51:28.437Z,19.62
2018-04-16T02:52:28.379Z,19.54
2018-04-16T02:53:28.359Z,19.56
2018-04-16T02:54:29.060Z,19.55
2018-04-16T02:55:28.259Z,19.52
2018-04-16T02:56:28.223Z,19.54
2018-04-16T02:57:28.156Z,19.39
2018-04-16T02:58:28.137Z,19.41
2018-04-16T02:59:28.087Z,19.47
2018-04-16T03:00:28.227Z,19.44
2018-04-16T03:01:27.980Z,19.40
2018-04-16T03:02:27.970Z,19.52
2018-04-16T03:03:28.444Z,19.54
2018-04-16T03:04:27.847Z,19.44
2018-04-16T03:05:27.802Z,19.44
2018-04-16T03:06:27.974Z,19.34
2018-04-16T03:07:27.706Z,19.19
2018-04-16T03:08:27.661Z,19.09
2018-04-16T03:09:27.655Z,19.08
2018-04-16T03:10:27.595Z,18.99
2018-04-16T03:11:27.532Z,18.98
2018-04-16T03:12:27.706Z,18.93
2018-04-16T03:13:27.431Z,19.11
2018-04-16T03:14:27.431Z,19.04
2018-04-16T03:15:27.355Z,19.09
2018-04-16T03:16:27.299Z,19.12
2018-04-16T03:17:27.281Z,19.07
2018-04-16T03:18:27.454Z,19.07
2018-04-16T03:19:27.174Z,19.09
2018-04-16T03:20:27.152Z,19.11
2018-04-16T03:21:27.090Z,19.19
2018-04-16T03:22:27.026Z,19.12
2018-04-16T03:23:26.997Z,19.12
2018-04-16T03:24:27.138Z,19.11
2018-04-16T03:25:26.893Z,19.11
2018-04-16T03:26:26.862Z,19.14
2018-04-16T03:27:26.839Z,19.21
2018-04-16T03:28:26.779Z,19.18
2018-04-16T03:29:26.716Z,19.12
2018-04-16T03:30:26.901Z,19.09
2018-04-16T03:31:26.636Z,19.09
2018-04-16T03:32:26.598Z,19.04
2018-04-16T03:33:26.544Z,18.96
2018-04-16T03:34:26.500Z,18.96
2018-04-16T03:35:26.450Z,18.93
2018-04-16T03:36:26.596Z,18.96
2018-04-16T03:37:26.371Z,19.00
2018-04-16T03:38:26.311Z,18.95
2018-04-16T03:39:26.305Z,19.00
2018-04-16T03:40:26.244Z,18.99
2018-04-16T03:41:26.194Z,18.96
2018-04-16T03:42:26.345Z,18.98
2018-04-16T03:43:26.092Z,18.96
2018-04-16T03:44:26.075Z,18.86
2018-04-16T03:45:26.028Z,18.93
2018-04-16T03:46:25.957Z,18.93
2018-04-16T03:47:25.925Z,18.90
2018-04-16T03:48:26.057Z,18.96
2018-04-16T03:49:25.826Z,19.00
2018-04-16T03:50:25.759Z,19.02
2018-04-16T03:51:25.725Z,18.99
2018-04-16T03:52:25.684Z,19.07
2018-04-16T03:53:25.627Z,18.95
2018-04-16T03:54:25.813Z,18.98
2018-04-16T03:55:25.533Z,18.99
2018-04-16T03:56:25.513Z,19.07
2018-04-16T03:57:25.470Z,19.08
2018-04-16T03:58:25.426Z,18.99
2018-04-16T03:59:25.374Z,19.02
2018-04-16T04:00:25.523Z,19.04
2018-04-16T04:01:25.269Z,19.14
2018-04-16T04:02:25.245Z,19.15
2018-04-16T04:03:25.189Z,19.18
2018-04-16T04:04:25.151Z,19.11
2018-04-16T04:05:25.106Z,19.19
2018-04-16T04:06:25.251Z,19.09
2018-04-16T04:07:25.012Z,19.15
2018-04-16T04:08:24.948Z,19.07
2018-04-16T04:09:24.909Z,19.15
2018-04-16T04:10:24.893Z,19.14
2018-04-16T04:11:24.821Z,19.16
2018-04-16T04:12:24.976Z,19.14
2018-04-16T04:13:24.726Z,19.22
2018-04-16T04:14:24.700Z,19.27
2018-04-16T04:15:24.655Z,19.11
2018-04-16T04:16:24.588Z,19.09
2018-04-16T04:17:24.583Z,19.11
2018-04-16T04:18:24.710Z,19.12
2018-04-16T04:19:24.485Z,19.21
2018-04-16T04:20:24.441Z,19.16
2018-04-16T04:21:24.356Z,19.11
2018-04-16T04:22:24.317Z,18.99
2018-04-16T04:23:24.286Z,19.02
2018-04-16T04:24:24.464Z,19.11
2018-04-16T04:25:24.172Z,19.08
2018-04-16T04:26:24.131Z,18.95
2018-04-16T04:27:24.106Z,18.95
2018-04-16T04:28:24.085Z,19.07
2018-04-16T04:29:24.021Z,19.14
2018-04-16T04:30:24.174Z,19.16
2018-04-16T04:31:23.943Z,19.12
2018-04-16T04:32:23.859Z,19.14
2018-04-16T04:33:23.842Z,19.11
2018-04-16T04:34:23.791Z,19.14
2018-04-16T04:35:23.730Z,19.24
2018-04-16T04:36:23.884Z,19.11
2018-04-16T04:37:23.651Z,19.12
2018-04-16T04:38:23.616Z,19.19
2018-04-16T04:39:23.567Z,19.14
2018-04-16T04:40:23.527Z,19.19
2018-04-16T04:41:23.485Z,19.08
2018-04-16T04:42:23.633Z,19.12
2018-04-16T04:43:23.389Z,19.11
2018-04-16T04:44:23.329Z,19.12
2018-04-16T04:45:23.277Z,19.12
2018-04-16T04:46:23.244Z,19.12
2018-04-16T04:47:23.194Z,19.02
2018-04-16T04:48:23.359Z,19.07
2018-04-16T04:49:23.104Z,19.11
2018-04-16T04:50:23.059Z,19.12
2018-04-16T04:51:23.015Z,19.09
2018-04-16T04:52:22.976Z,19.09
2018-04-16T04:53:22.924Z,19.12
2018-04-16T04:54:23.077Z,19.09
2018-04-16T04:55:22.833Z,19.19
2018-04-16T04:56:22.778Z,19.21
2018-04-16T04:57:22.748Z,19.08
2018-04-16T04:58:22.697Z,19.15
2018-04-16T04:59:22.684Z,19.18
2018-04-16T05:00:22.812Z,19.08
2018-04-16T05:01:22.574Z,19.21
2018-04-16T05:02:22.524Z,19.22
2018-04-16T05:03:22.507Z,19.30
2018-04-16T05:04:22.412Z,19.30
2018-04-16T05:05:22.395Z,19.22
2018-04-16T05:06:22.549Z,19.19
2018-04-16T05:07:22.284Z,19.22
2018-04-16T05:08:22.242Z,19.24
2018-04-16T05:09:22.201Z,19.19
2018-04-16T05:10:22.155Z,19.27
2018-04-16T05:11:22.107Z,19.22
2018-04-16T05:12:22.252Z,19.09
2018-04-16T05:13:22.004Z,19.16
2018-04-16T05:14:21.999Z,19.15
2018-04-16T05:15:21.965Z,19.11
2018-04-16T05:16:21.895Z,19.16
2018-04-16T05:17:21.832Z,19.19
2018-04-16T05:18:22.006Z,19.21
2018-04-16T05:19:21.748Z,19.27
2018-04-16T05:20:21.714Z,19.30
2018-04-16T05:21:21.658Z,19.21
2018-04-16T05:22:21.595Z,19.11
2018-04-16T05:23:21.560Z,19.07
2018-04-16T05:24:21.723Z,19.07
2018-04-16T05:25:21.485Z,19.08
2018-04-16T05:26:21.432Z,19.11
2018-04-16T05:27:21.370Z,19.11
2018-04-16T05:28:21.343Z,19.02
2018-04-16T05:29:21.298Z,18.89
2018-04-16T05:30:21.460Z,19.04
2018-04-16T05:31:21.221Z,19.07
2018-04-16T05:32:21.177Z,19.04
2018-04-16T05:33:21.105Z,19.09
2018-04-16T05:34:21.069Z,19.09
2018-04-16T05:35:21.053Z,19.15
2018-04-16T05:36:21.186Z,19.18
2018-04-16T05:37:20.940Z,19.18
2018-04-16T05:38:20.903Z,19.11
2018-04-16T05:39:20.862Z,18.89
2018-04-16T05:40:20.807Z,18.92
2018-04-16T05:41:20.756Z,18.96
2018-04-16T05:42:20.915Z,18.98
2018-04-16T05:43:20.675Z,18.95
2018-04-16T05:44:20.630Z,18.92
2018-04-16T05:45:20.609Z,19.00
2018-04-16T05:46:20.513Z,18.95
2018-04-16T05:47:20.483Z,19.11
2018-04-16T05:48:20.652Z,19.11
2018-04-16T05:49:20.409Z,18.96
2018-04-16T05:50:20.373Z,19.00
2018-04-16T05:51:20.295Z,19.08
2018-04-16T05:52:20.256Z,19.09
2018-04-16T05:53:20.194Z,19.14
2018-04-16T05:54:20.352Z,19.18
2018-04-16T05:55:20.127Z,19.15
2018-04-16T05:56:20.087Z,19.09
2018-04-16T05:57:20.030Z,19.11
2018-04-16T05:58:20.011Z,19.14
2018-04-16T05:59:19.948Z,19.12
2018-04-16T06:00:20.107Z,19.11
2018-04-16T06:01:19.859Z,19.18
2018-04-16T06:02:19.822Z,19.15
2018-04-16T06:03:19.767Z,19.04
2018-04-16T06:04:19.740Z,19.08
2018-04-16T06:05:19.670Z,19.11
2018-04-16T06:06:19.812Z,19.15
2018-04-16T06:07:19.611Z,19.15
2018-04-16T06:08:19.549Z,19.18
2018-04-16T06:09:19.520Z,19.16
2018-04-16T06:10:19.456Z,19.08
2018-04-16T06:11:19.424Z,19.09
2018-04-16T06:12:19.553Z,19.16
2018-04-16T06:13:19.317Z,19.07
2018-04-16T06:14:19.264Z,19.11
2018-04-16T06:15:19.232Z,19.12
2018-04-16T06:16:19.158Z,19.08
2018-04-16T06:17:19.119Z,19.14
2018-04-16T06:18:19.265Z,19.11
2018-04-16T06:19:19.037Z,19.12
2018-04-16T06:20:18.982Z,19.11
2018-04-16T06:21:18.970Z,19.12
2018-04-16T06:22:18.927Z,19.09
2018-04-16T06:23:19.089Z,19.14
2018-04-16T06:24:18.806Z,19.11
2018-04-16T06:25:18.791Z,18.96
2018-04-16T06:26:18.747Z,18.89
2018-04-16T06:27:18.692Z,18.90
2018-04-16T06:28:18.643Z,18.95
2018-04-16T06:29:18.772Z,18.86
2018-04-16T06:30:18.551Z,18.86
2018-04-16T06:31:18.520Z,18.84
2018-04-16T06:32:18.430Z,18.89
2018-04-16T06:33:18.415Z,18.92
2018-04-16T06:34:18.372Z,18.93
2018-04-16T06:35:18.544Z,18.95
2018-04-16T06:36:18.279Z,18.89
2018-04-16T06:37:18.223Z,18.88
2018-04-16T06:38:18.178Z,18.80
2018-04-16T06:39:18.123Z,18.80
2018-04-16T06:40:18.598Z,18.88
2018-04-16T06:41:18.235Z,18.92
2018-04-16T06:42:17.997Z,18.86
2018-04-16T06:43:17.950Z,18.81
2018-04-16T06:44:17.923Z,18.90
2018-04-16T06:45:17.868Z,18.86
2018-04-16T06:46:17.804Z,18.78
2018-04-16T06:47:17.967Z,18.90
2018-04-16T06:48:17.722Z,18.86
2018-04-16T06:49:17.686Z,18.84
2018-04-16T06:50:17.633Z,18.84
2018-04-16T06:51:17.598Z,18.78
2018-04-16T06:52:17.569Z,18.90
2018-04-16T06:53:17.709Z,18.88
2018-04-16T06:54:17.448Z,18.83
2018-04-16T06:55:17.415Z,18.90
2018-04-16T06:56:17.373Z,18.88
2018-04-16T06:57:17.327Z,18.88
2018-04-16T06:58:17.267Z,18.88
2018-04-16T06:59:17.427Z,18.99
2018-04-16T07:00:17.195Z,18.90
2018-04-16T07:01:17.148Z,18.95
2018-04-16T07:02:17.115Z,18.98
2018-04-16T07:03:17.061Z,18.95
2018-04-16T07:04:16.993Z,18.95
2018-04-16T07:05:17.155Z,18.92
2018-04-16T07:06:16.946Z,18.98
2018-04-16T07:07:16.875Z,18.98
2018-04-16T07:08:16.820Z,18.98
2018-04-16T07:09:16.785Z,18.99
2018-04-16T07:10:16.713Z,19.08
2018-04-16T07:11:16.871Z,19.04
2018-04-16T07:12:16.650Z,19.12
2018-04-16T07:13:16.599Z,19.15
2018-04-16T07:14:16.545Z,19.08
2018-04-16T07:15:16.485Z,19.18
2018-04-16T07:16:16.452Z,19.12
2018-04-16T07:17:16.634Z,19.16
2018-04-16T07:18:16.359Z,19.18
2018-04-16T07:19:16.318Z,19.18
2018-04-16T07:20:16.277Z,19.14
2018-04-16T07:21:16.268Z,19.07
2018-04-16T07:22:16.169Z,19.14
2018-04-16T07:23:16.329Z,19.12
2018-04-16T07:24:16.108Z,19.04
2018-04-16T07:25:16.058Z,19.07
2018-04-16T07:26:15.994Z,19.12
2018-04-16T07:27:15.972Z,19.04
2018-04-16T07:28:15.904Z,18.95
2018-04-16T07:29:16.053Z,19.02
2018-04-16T07:30:15.847Z,18.98
2018-04-16T07:31:15.775Z,18.98
2018-04-16T07:32:15.731Z,19.02
2018-04-16T07:33:15.689Z,19.08
2018-04-16T07:34:15.639Z,19.08
2018-04-16T07:35:15.788Z,19.09
2018-04-16T07:36:15.563Z,19.07
2018-04-16T07:37:15.517Z,19.04
2018-04-16T07:38:15.460Z,18.89
2018-04-16T07:39:15.442Z,18.98
2018-04-16T07:40:15.377Z,18.98
2018-04-16T07:41:15.523Z,18.90
2018-04-16T07:42:15.306Z,18.93
2018-04-16T07:43:15.231Z,18.89
2018-04-16T07:44:15.189Z,18.89
2018-04-16T07:45:15.145Z,18.88
2018-04-16T07:46:15.101Z,18.83
2018-04-16T07:47:15.256Z,18.93
2018-04-16T07:48:15.041Z,18.84
2018-04-16T07:49:14.975Z,18.88
2018-04-16T07:50:14.918Z,18.86
2018-04-16T07:51:14.872Z,18.86
2018-04-16T07:52:14.853Z,18.92
2018-04-16T07:53:14.976Z,18.80
2018-04-16T07:54:14.720Z,18.77
2018-04-16T07:55:14.704Z,18.80
2018-04-16T07:56:14.659Z,18.63
2018-04-16T07:57:15.151Z,18.65
2018-04-16T07:58:14.562Z,18.59
2018-04-16T07:59:14.693Z,18.58
2018-04-16T08:00:14.478Z,18.56
2018-04-16T08:01:14.420Z,18.65
2018-04-16T08:02:14.373Z,18.60
2018-04-16T08:03:14.321Z,18.70
2018-04-16T08:04:14.283Z,18.52
2018-04-16T08:05:14.488Z,18.60
2018-04-16T08:06:14.205Z,18.59
2018-04-16T08:07:14.167Z,18.63
2018-04-16T08:08:14.625Z,18.63
2018-04-16T08:09:14.057Z,18.62
2018-04-16T08:10:14.023Z,18.63
2018-04-16T08:11:14.178Z,18.63
2018-04-16T08:12:13.936Z,18.62
2018-04-16T08:13:13.895Z,18.63
2018-04-16T08:14:13.829Z,18.62
2018-04-16T08:15:13.785Z,18.55
2018-04-16T08:16:13.734Z,18.56
2018-04-16T08:17:13.878Z,18.59
2018-04-16T08:18:13.647Z,18.63
2018-04-16T08:19:13.655Z,18.58
2018-04-16T08:20:13.583Z,18.50
2018-04-16T08:21:13.539Z,18.35
2018-04-16T08:22:13.528Z,18.58
2018-04-16T08:23:13.604Z,18.55
2018-04-16T08:24:13.384Z,18.34
2018-04-16T08:25:13.326Z,18.47
2018-04-16T08:26:13.294Z,18.50
2018-04-16T08:27:13.244Z,18.52
2018-04-16T08:28:13.179Z,18.59
2018-04-16T08:29:13.360Z,18.50
2018-04-16T08:30:13.640Z,18.59
2018-04-16T08:31:13.074Z,18.55
2018-04-16T08:32:13.001Z,18.38
2018-04-16T08:33:13.011Z,18.49
2018-04-16T08:34:12.946Z,18.52
2018-04-16T08:35:13.072Z,18.38
2018-04-16T08:36:12.869Z,18.49
2018-04-16T08:37:12.766Z,18.47
2018-04-16T08:38:12.725Z,18.47
2018-04-16T08:39:12.684Z,18.59
2018-04-16T08:40:12.645Z,18.58
2018-04-16T08:41:12.814Z,18.55
2018-04-16T08:42:12.563Z,18.59
2018-04-16T08:43:12.537Z,18.55
2018-04-16T08:44:12.456Z,18.56
2018-04-16T08:45:12.433Z,18.60
2018-04-16T08:46:12.576Z,18.56
2018-04-16T08:47:12.333Z,18.53
2018-04-16T08:48:12.270Z,18.55
2018-04-16T08:49:12.243Z,18.53
2018-04-16T08:50:12.192Z,18.65
2018-04-16T08:51:12.156Z,18.53
2018-04-16T08:52:12.436Z,18.50
2018-04-16T08:53:12.059Z,18.55
2018-04-16T08:54:12.013Z,18.53
2018-04-16T08:55:11.979Z,18.56
2018-04-16T08:56:11.932Z,18.56
2018-04-16T08:57:11.874Z,18.55
2018-04-16T08:58:12.056Z,18.60
2018-04-16T08:59:11.791Z,18.60
2018-04-16T09:00:11.738Z,18.40
2018-04-16T09:01:11.687Z,18.45
2018-04-16T09:02:11.647Z,18.49
2018-04-16T09:03:11.588Z,18.52
2018-04-16T09:04:11.752Z,18.53
2018-04-16T09:05:11.537Z,18.58
2018-04-16T09:06:11.487Z,18.40
2018-04-16T09:07:11.425Z,18.50
2018-04-16T09:08:11.376Z,18.47
2018-04-16T09:09:11.327Z,18.45
2018-04-16T09:10:11.467Z,18.45
2018-04-16T09:11:11.232Z,18.40
2018-04-16T09:12:11.191Z,18.33
2018-04-16T09:13:11.155Z,18.29
2018-04-16T09:14:11.086Z,18.43
2018-04-16T09:15:11.068Z,18.41
2018-04-16T09:16:11.253Z,18.49
2018-04-16T09:17:10.962Z,18.59
2018-04-16T09:18:10.922Z,18.58
2018-04-16T09:19:10.890Z,18.55
2018-04-16T09:20:10.858Z,18.62
2018-04-16T09:21:11.016Z,18.53
2018-04-16T09:22:10.734Z,18.53
2018-04-16T09:23:10.717Z,18.52
2018-04-16T09:24:10.674Z,18.60
2018-04-16T09:25:10.587Z,18.50
2018-04-16T09:26:10.567Z,18.50
2018-04-16T09:27:10.696Z,18.40
2018-04-16T09:28:10.458Z,18.47
2018-04-16T09:29:10.446Z,18.53
2018-04-16T09:30:10.390Z,18.35
2018-04-16T09:31:10.340Z,18.37
2018-04-16T09:32:10.302Z,18.44
2018-04-16T09:33:10.438Z,18.40
2018-04-16T09:34:10.209Z,18.45
2018-04-16T09:35:10.132Z,18.53
2018-04-16T09:36:10.113Z,18.49
2018-04-16T09:37:10.063Z,18.44
2018-04-16T09:38:10.033Z,18.45
2018-04-16T09:39:10.149Z,18.53
2018-04-16T09:40:09.931Z,18.43
2018-04-16T09:41:09.882Z,18.38
2018-04-16T09:42:09.814Z,18.41
2018-04-16T09:43:09.767Z,18.43
2018-04-16T09:44:09.749Z,18.52
2018-04-16T09:45:09.883Z,18.43
2018-04-16T09:46:09.662Z,18.53
2018-04-16T09:47:09.614Z,18.50
2018-04-16T09:48:09.555Z,18.53
2018-04-16T09:49:09.535Z,18.55
2018-04-16T09:50:09.464Z,18.56
2018-04-16T09:51:09.602Z,18.47
2018-04-16T09:52:09.358Z,18.50
2018-04-16T09:53:09.320Z,18.45
2018-04-16T09:54:09.294Z,18.55
2018-04-16T09:55:09.220Z,18.65
2018-04-16T09:56:09.204Z,18.65
2018-04-16T09:57:09.356Z,18.75
2018-04-16T09:58:09.126Z,18.65
2018-04-16T09:59:09.039Z,18.71
2018-04-16T10:00:09.010Z,18.60
2018-04-16T10:01:08.963Z,18.63
2018-04-16T10:02:08.950Z,18.58
2018-04-16T10:03:09.074Z,18.58
2018-04-16T10:04:08.853Z,18.63
2018-04-16T10:05:08.769Z,18.73
2018-04-16T10:06:08.738Z,18.75
2018-04-16T10:07:08.678Z,18.65
2018-04-16T10:08:08.632Z,18.63
2018-04-16T10:09:08.830Z,18.55
2018-04-16T10:10:08.567Z,18.58
2018-04-16T10:11:08.500Z,18.56
2018-04-16T10:12:08.479Z,18.58
2018-04-16T10:13:08.406Z,18.62
2018-04-16T10:14:08.386Z,18.63
2018-04-16T10:15:08.544Z,18.60
2018-04-16T10:16:08.284Z,18.65
2018-04-16T10:17:08.275Z,18.71
2018-04-16T10:18:08.187Z,18.68
2018-04-16T10:19:08.174Z,18.65
2018-04-16T10:20:08.114Z,18.73
2018-04-16T10:21:08.284Z,18.73
2018-04-16T10:22:08.023Z,18.65
2018-04-16T10:23:07.953Z,18.65
2018-04-16T10:24:07.907Z,18.62
2018-04-16T10:25:07.876Z,18.60
2018-04-16T10:26:07.834Z,18.50
2018-04-16T10:27:07.985Z,18.53
2018-04-16T10:28:07.762Z,18.59
2018-04-16T10:29:07.694Z,18.55
2018-04-16T10:30:07.635Z,18.63
2018-04-16T10:31:07.612Z,18.62
2018-04-16T10:32:07.585Z,18.71
2018-04-16T10:33:07.699Z,18.73
2018-04-16T10:34:07.515Z,18.68
2018-04-16T10:35:07.408Z,18.74
2018-04-16T10:36:07.388Z,18.84
2018-04-16T10:37:07.343Z,18.93
2018-04-16T10:38:07.286Z,18.81
2018-04-16T10:39:07.452Z,18.84
2018-04-16T10:40:07.204Z,18.92
2018-04-16T10:41:07.213Z,18.89
2018-04-16T10:42:07.115Z,18.84
2018-04-16T10:43:07.082Z,18.83
2018-04-16T10:44:07.011Z,18.83
2018-04-16T10:45:07.185Z,18.84
2018-04-16T10:46:06.932Z,18.93
2018-04-16T10:47:06.895Z,19.07
2018-04-16T10:48:06.849Z,18.99
2018-04-16T10:49:06.812Z,18.98
2018-04-16T10:50:06.952Z,18.96
2018-04-16T10:51:06.700Z,18.90
2018-04-16T10:52:06.656Z,18.95
2018-04-16T10:53:06.612Z,18.95
2018-04-16T10:54:06.559Z,19.07
2018-04-16T10:55:06.547Z,19.11
2018-04-16T10:56:06.675Z,19.15
2018-04-16T10:57:06.428Z,19.24
2018-04-16T10:58:06.387Z,19.24
2018-04-16T10:59:06.365Z,19.22
2018-04-16T11:00:06.320Z,19.45
2018-04-16T11:01:06.248Z,19.37
2018-04-16T11:02:06.426Z,19.40
2018-04-16T11:03:06.164Z,19.47
2018-04-16T11:04:06.130Z,19.39
2018-04-16T11:05:06.093Z,19.47
2018-04-16T11:06:06.055Z,19.45
2018-04-16T11:07:05.998Z,19.56
2018-04-16T11:08:06.159Z,19.54
2018-04-16T11:09:05.883Z,19.55
2018-04-16T11:10:05.837Z,19.49
2018-04-16T11:11:05.827Z,19.59
2018-04-16T11:12:05.759Z,19.52
2018-04-16T11:13:05.754Z,19.48
2018-04-16T11:14:05.884Z,19.54
2018-04-16T11:15:05.654Z,19.47
2018-04-16T11:16:05.566Z,19.55
2018-04-16T11:17:05.554Z,19.45
2018-04-16T11:18:05.502Z,19.47
2018-04-16T11:19:05.448Z,19.62
2018-04-16T11:20:05.597Z,19.52
2018-04-16T11:21:05.356Z,19.49
2018-04-16T11:22:05.337Z,19.58
2018-04-16T11:23:05.271Z,19.59
2018-04-16T11:24:05.247Z,19.55
2018-04-16T11:25:05.180Z,19.55
2018-04-16T11:26:05.321Z,19.47
2018-04-16T11:27:05.102Z,19.63
2018-04-16T11:28:05.053Z,19.52
2018-04-16T11:29:05.012Z,19.51
2018-04-16T11:30:04.984Z,19.69
2018-04-16T11:31:04.918Z,19.67
2018-04-16T11:32:05.092Z,19.58
2018-04-16T11:33:04.828Z,19.66
2018-04-16T11:34:04.777Z,19.58
2018-04-16T11:35:04.732Z,19.66
2018-04-16T11:36:04.701Z,19.69
2018-04-16T11:37:04.644Z,19.70
2018-04-16T11:38:04.792Z,19.58
2018-04-16T11:39:04.566Z,19.56
2018-04-16T11:40:04.509Z,19.64
2018-04-16T11:41:04.502Z,19.59
2018-04-16T11:42:04.625Z,19.67
2018-04-16T11:43:04.367Z,19.69
2018-04-16T11:44:04.555Z,19.71
2018-04-16T11:45:04.311Z,19.76
2018-04-16T11:46:04.276Z,19.70
2018-04-16T11:47:04.200Z,19.77
2018-04-16T11:48:04.156Z,19.74
2018-04-16T11:49:04.121Z,19.74
2018-04-16T11:50:04.292Z,19.66
2018-04-16T11:51:04.015Z,19.76
2018-04-16T11:52:03.960Z,19.79
2018-04-16T11:53:03.937Z,19.73
2018-04-16T11:54:03.895Z,19.59
2018-04-16T11:55:04.045Z,19.66
2018-04-16T11:56:03.825Z,19.70
2018-04-16T11:57:03.756Z,19.59
2018-04-16T11:58:03.703Z,19.59
2018-04-16T11:59:03.672Z,19.59
2018-04-16T12:00:03.623Z,19.59
2018-04-16T12:01:03.770Z,19.49
2018-04-16T12:02:03.521Z,19.52
2018-04-16T12:03:03.480Z,19.44
2018-04-16T12:04:03.450Z,19.48
2018-04-16T12:05:03.371Z,19.44
2018-04-16T12:06:03.336Z,19.45
2018-04-16T12:07:03.506Z,19.33
2018-04-16T12:08:03.255Z,19.44
2018-04-16T12:09:03.210Z,19.36
2018-04-16T12:10:03.152Z,19.39
2018-04-16T12:11:03.128Z,19.45
2018-04-16T12:12:03.083Z,19.36
2018-04-16T12:13:03.268Z,19.47
2018-04-16T12:14:02.968Z,19.40
2018-04-16T12:15:02.940Z,19.45
2018-04-16T12:16:02.905Z,19.41
2018-04-16T12:17:02.837Z,19.48
2018-04-16T12:18:02.813Z,19.47
2018-04-16T12:19:02.966Z,19.54
2018-04-16T12:20:02.706Z,19.55
2018-04-16T12:21:02.665Z,19.55
2018-04-16T12:22:02.618Z,19.58
2018-04-16T12:23:02.583Z,19.55
2018-04-16T12:24:02.539Z,19.52
2018-04-16T12:25:02.755Z,19.62
2018-04-16T12:26:02.461Z,19.62
2018-04-16T12:27:02.396Z,19.54
2018-04-16T12:28:02.357Z,19.55
2018-04-16T12:29:02.326Z,19.55
2018-04-16T12:30:02.281Z,19.54
2018-04-16T12:31:02.418Z,19.52
2018-04-16T12:32:02.177Z,19.40
2018-04-16T12:33:02.283Z,19.45
2018-04-16T12:34:02.116Z,19.45
2018-04-16T12:35:02.046Z,19.40
2018-04-16T12:36:01.988Z,19.33
2018-04-16T12:37:02.139Z,19.41
2018-04-16T12:38:01.957Z,19.22
2018-04-16T12:39:01.861Z,19.14
2018-04-16T12:40:01.838Z,19.11
2018-04-16T12:41:01.775Z,19.09
2018-04-16T12:42:01.714Z,19.11
2018-04-16T12:43:01.883Z,19.11
2018-04-16T12:44:01.653Z,19.12
2018-04-16T12:45:01.581Z,19.21
2018-04-16T12:46:01.567Z,19.19
2018-04-16T12:47:01.494Z,19.11
2018-04-16T12:48:01.485Z,18.99
2018-04-16T12:49:01.610Z,19.02
2018-04-16T12:50:01.366Z,18.95
2018-04-16T12:51:01.336Z,18.95
2018-04-16T12:52:01.276Z,18.99
2018-04-16T12:53:01.218Z,18.98